KHKA/HKA METAR and TAF weather

Enter ICAO airport designator
Station Type Date Time Source
KHKA METAR 2020/07/10 18:53 UTC NOAA

KHKA 101853Z AUTO 03007KT 10SM CLR 33/20 A2998 RMK AO2 SLP149 T03330200 $


Station Type Date Time Source
KHKA Decoded METAR 2020/07/10 18:53 UTC NOAA

BLYTHEVILLE MUNICIPAL AIRPORT , AR, United States (KHKA) 35-56N 89-50W 78M
Jul 10, 2020 - 02:53 PM EDT / 2020.07.10 1853 UTC
Wind: from the NNE (030 degrees) at 8 MPH (7 KT):0
Visibility: 10 mile(s):0
Sky conditions: clear
Temperature: 91.9 F (33.3 C)
Heat index: 95.7 F (35.4 C):1
Dew Point: 68.0 F (20.0 C)
Relative Humidity: 45%
Pressure (altimeter): 29.98 in. Hg (1015 hPa)
ob: KHKA 101853Z AUTO 03007KT 10SM CLR 33/20 A2998 RMK AO2 SLP149 T03330200
cycle: 19

Station Type Date Time Source
KHKA TAF UTC NOAA

Error!

Example: see airport list